sensor_id;sensor_type;location;lat;lon;timestamp;P1;durP1;ratioP1;P2;durP2;ratioP2
5937;SDS011;2994;51.220;4.412;2023-07-20T00:01:45;8.90;;;3.70;;
5937;SDS011;2994;51.220;4.412;2023-07-20T00:04:11;4.60;;;3.47;;
5937;SDS011;2994;51.220;4.412;2023-07-20T00:06:36;8.10;;;3.50;;
5937;SDS011;2994;51.220;4.412;2023-07-20T00:09:05;5.40;;;3.17;;
5937;SDS011;2994;51.220;4.412;2023-07-20T00:11:31;6.63;;;3.70;;
5937;SDS011;2994;51.220;4.412;2023-07-20T00:13:56;4.13;;;2.80;;
5937;SDS011;2994;51.220;4.412;2023-07-20T00:16:22;3.90;;;2.63;;
5937;SDS011;2994;51.220;4.412;2023-07-20T00:18:47;3.50;;;2.20;;
5937;SDS011;2994;51.220;4.412;2023-07-20T00:21:13;2.87;;;2.13;;
5937;SDS011;2994;51.220;4.412;2023-07-20T00:23:38;4.30;;;2.20;;
5937;SDS011;2994;51.220;4.412;2023-07-20T00:26:03;3.10;;;2.20;;
5937;SDS011;2994;51.220;4.412;2023-07-20T00:28:29;3.40;;;2.10;;
5937;SDS011;2994;51.220;4.412;2023-07-20T00:30:54;3.30;;;2.23;;
5937;SDS011;2994;51.220;4.412;2023-07-20T00:33:20;2.50;;;2.20;;
5937;SDS011;2994;51.220;4.412;2023-07-20T00:35:45;5.23;;;1.93;;
5937;SDS011;2994;51.220;4.412;2023-07-20T00:38:11;4.33;;;2.30;;
5937;SDS011;2994;51.220;4.412;2023-07-20T00:40:40;3.50;;;2.33;;
5937;SDS011;2994;51.220;4.412;2023-07-20T00:43:06;4.37;;;2.40;;
5937;SDS011;2994;51.220;4.412;2023-07-20T00:45:32;4.07;;;1.70;;
5937;SDS011;2994;51.220;4.412;2023-07-20T00:47:59;5.07;;;2.30;;
5937;SDS011;2994;51.220;4.412;2023-07-20T00:50:26;2.80;;;2.00;;
5937;SDS011;2994;51.220;4.412;2023-07-20T00:52:54;3.00;;;2.20;;
5937;SDS011;2994;51.220;4.412;2023-07-20T00:55:20;4.83;;;2.80;;
5937;SDS011;2994;51.220;4.412;2023-07-20T00:57:46;3.63;;;2.00;;
5937;SDS011;2994;51.220;4.412;2023-07-20T01:00:12;3.13;;;2.10;;
5937;SDS011;2994;51.220;4.412;2023-07-20T01:02:37;2.80;;;1.87;;
5937;SDS011;2994;51.220;4.412;2023-07-20T01:05:03;3.13;;;1.80;;
5937;SDS011;2994;51.220;4.412;2023-07-20T01:07:33;3.27;;;2.17;;
5937;SDS011;2994;51.220;4.412;2023-07-20T01:12:37;2.70;;;2.50;;
5937;SDS011;2994;51.220;4.412;2023-07-20T01:15:11;4.70;;;2.23;;
5937;SDS011;2994;51.220;4.412;2023-07-20T01:17:37;2.60;;;2.13;;
5937;SDS011;2994;51.220;4.412;2023-07-20T01:20:03;3.37;;;2.77;;
5937;SDS011;2994;51.220;4.412;2023-07-20T01:28:20;3.67;;;2.90;;
5937;SDS011;2994;51.220;4.412;2023-07-20T01:33:43;3.23;;;3.00;;
5937;SDS011;2994;51.220;4.412;2023-07-20T01:36:10;4.83;;;3.00;;
5937;SDS011;2994;51.220;4.412;2023-07-20T01:38:36;4.70;;;3.53;;
5937;SDS011;2994;51.220;4.412;2023-07-20T01:41:03;4.10;;;3.50;;
5937;SDS011;2994;51.220;4.412;2023-07-20T01:43:30;8.30;;;3.87;;
5937;SDS011;2994;51.220;4.412;2023-07-20T01:45:55;6.00;;;3.63;;
5937;SDS011;2994;51.220;4.412;2023-07-20T01:48:21;4.70;;;3.27;;
5937;SDS011;2994;51.220;4.412;2023-07-20T01:50:46;5.90;;;3.47;;
5937;SDS011;2994;51.220;4.412;2023-07-20T01:53:13;6.07;;;3.80;;
5937;SDS011;2994;51.220;4.412;2023-07-20T01:55:38;6.23;;;4.13;;
5937;SDS011;2994;51.220;4.412;2023-07-20T01:58:04;5.10;;;4.50;;
5937;SDS011;2994;51.220;4.412;2023-07-20T02:00:31;4.77;;;4.30;;
5937;SDS011;2994;51.220;4.412;2023-07-20T02:02:56;6.03;;;4.47;;
5937;SDS011;2994;51.220;4.412;2023-07-20T02:05:21;6.00;;;4.80;;
5937;SDS011;2994;51.220;4.412;2023-07-20T02:07:47;6.73;;;4.90;;
5937;SDS011;2994;51.220;4.412;2023-07-20T02:10:12;5.73;;;5.13;;
5937;SDS011;2994;51.220;4.412;2023-07-20T02:12:37;5.57;;;4.63;;
5937;SDS011;2994;51.220;4.412;2023-07-20T02:15:03;6.33;;;5.37;;
5937;SDS011;2994;51.220;4.412;2023-07-20T02:17:29;6.40;;;5.37;;
5937;SDS011;2994;51.220;4.412;2023-07-20T02:19:55;6.63;;;4.47;;
5937;SDS011;2994;51.220;4.412;2023-07-20T02:22:22;6.83;;;5.13;;
5937;SDS011;2994;51.220;4.412;2023-07-20T02:24:48;6.77;;;5.60;;
5937;SDS011;2994;51.220;4.412;2023-07-20T02:27:14;7.93;;;5.80;;
5937;SDS011;2994;51.220;4.412;2023-07-20T02:29:40;7.80;;;5.87;;
5937;SDS011;2994;51.220;4.412;2023-07-20T02:32:07;6.07;;;5.47;;
5937;SDS011;2994;51.220;4.412;2023-07-20T02:34:33;8.23;;;5.37;;
5937;SDS011;2994;51.220;4.412;2023-07-20T02:36:59;7.30;;;5.97;;
5937;SDS011;2994;51.220;4.412;2023-07-20T02:39:29;6.13;;;5.53;;
5937;SDS011;2994;51.220;4.412;2023-07-20T02:41:54;6.60;;;6.00;;
5937;SDS011;2994;51.220;4.412;2023-07-20T02:44:20;6.27;;;5.67;;
5937;SDS011;2994;51.220;4.412;2023-07-20T02:46:45;7.67;;;5.63;;
5937;SDS011;2994;51.220;4.412;2023-07-20T02:49:11;6.03;;;5.33;;
5937;SDS011;2994;51.220;4.412;2023-07-20T02:51:36;7.20;;;5.10;;
5937;SDS011;2994;51.220;4.412;2023-07-20T02:54:02;6.83;;;5.60;;
5937;SDS011;2994;51.220;4.412;2023-07-20T02:56:28;6.97;;;6.27;;
5937;SDS011;2994;51.220;4.412;2023-07-20T02:58:54;7.00;;;4.97;;
5937;SDS011;2994;51.220;4.412;2023-07-20T03:01:19;8.20;;;6.10;;
5937;SDS011;2994;51.220;4.412;2023-07-20T03:03:45;6.00;;;4.70;;
5937;SDS011;2994;51.220;4.412;2023-07-20T03:06:13;6.07;;;5.57;;
5937;SDS011;2994;51.220;4.412;2023-07-20T03:08:40;5.53;;;5.00;;
5937;SDS011;2994;51.220;4.412;2023-07-20T03:11:06;6.07;;;5.20;;
5937;SDS011;2994;51.220;4.412;2023-07-20T03:13:32;5.30;;;4.80;;
5937;SDS011;2994;51.220;4.412;2023-07-20T03:15:58;7.57;;;5.03;;
5937;SDS011;2994;51.220;4.412;2023-07-20T03:18:23;5.23;;;4.77;;
5937;SDS011;2994;51.220;4.412;2023-07-20T03:20:49;4.83;;;4.30;;
5937;SDS011;2994;51.220;4.412;2023-07-20T03:23:14;7.30;;;4.97;;
5937;SDS011;2994;51.220;4.412;2023-07-20T03:25:40;5.47;;;4.97;;
5937;SDS011;2994;51.220;4.412;2023-07-20T03:28:06;4.80;;;4.10;;
5937;SDS011;2994;51.220;4.412;2023-07-20T03:30:31;4.23;;;3.93;;
5937;SDS011;2994;51.220;4.412;2023-07-20T03:32:57;4.77;;;3.53;;
5937;SDS011;2994;51.220;4.412;2023-07-20T03:35:22;3.70;;;3.30;;
5937;SDS011;2994;51.220;4.412;2023-07-20T03:37:48;4.33;;;3.93;;
5937;SDS011;2994;51.220;4.412;2023-07-20T03:40:14;4.20;;;3.23;;
5937;SDS011;2994;51.220;4.412;2023-07-20T03:42:40;4.97;;;3.67;;
5937;SDS011;2994;51.220;4.412;2023-07-20T03:45:06;4.17;;;3.50;;
5937;SDS011;2994;51.220;4.412;2023-07-20T03:47:32;3.30;;;3.00;;
5937;SDS011;2994;51.220;4.412;2023-07-20T03:49:58;4.07;;;3.67;;
5937;SDS011;2994;51.220;4.412;2023-07-20T03:52:23;4.30;;;3.90;;
5937;SDS011;2994;51.220;4.412;2023-07-20T03:54:49;4.67;;;4.07;;
5937;SDS011;2994;51.220;4.412;2023-07-20T03:57:16;4.47;;;3.97;;
5937;SDS011;2994;51.220;4.412;2023-07-20T03:59:44;4.00;;;3.60;;
5937;SDS011;2994;51.220;4.412;2023-07-20T04:02:10;4.40;;;3.93;;
5937;SDS011;2994;51.220;4.412;2023-07-20T04:04:35;4.50;;;4.10;;
5937;SDS011;2994;51.220;4.412;2023-07-20T04:07:01;4.87;;;4.37;;
5937;SDS011;2994;51.220;4.412;2023-07-20T04:09:26;4.60;;;4.20;;
5937;SDS011;2994;51.220;4.412;2023-07-20T04:11:52;5.53;;;5.00;;
5937;SDS011;2994;51.220;4.412;2023-07-20T04:14:17;5.43;;;4.37;;
5937;SDS011;2994;51.220;4.412;2023-07-20T04:16:43;5.77;;;4.07;;
5937;SDS011;2994;51.220;4.412;2023-07-20T04:19:08;4.10;;;3.70;;
5937;SDS011;2994;51.220;4.412;2023-07-20T04:21:39;3.93;;;3.63;;
5937;SDS011;2994;51.220;4.412;2023-07-20T04:24:06;4.53;;;4.10;;
5937;SDS011;2994;51.220;4.412;2023-07-20T04:26:31;3.67;;;3.37;;
5937;SDS011;2994;51.220;4.412;2023-07-20T04:28:56;4.83;;;4.13;;
5937;SDS011;2994;51.220;4.412;2023-07-20T04:31:24;3.27;;;3.07;;
5937;SDS011;2994;51.220;4.412;2023-07-20T04:33:50;4.53;;;3.87;;
5937;SDS011;2994;51.220;4.412;2023-07-20T04:36:15;3.77;;;3.40;;
5937;SDS011;2994;51.220;4.412;2023-07-20T04:38:44;4.47;;;4.07;;
5937;SDS011;2994;51.220;4.412;2023-07-20T04:41:12;4.80;;;4.30;;
5937;SDS011;2994;51.220;4.412;2023-07-20T04:43:41;3.90;;;3.60;;
5937;SDS011;2994;51.220;4.412;2023-07-20T04:46:08;4.83;;;4.10;;
5937;SDS011;2994;51.220;4.412;2023-07-20T04:48:33;4.10;;;3.70;;
5937;SDS011;2994;51.220;4.412;2023-07-20T04:50:59;4.47;;;3.20;;
5937;SDS011;2994;51.220;4.412;2023-07-20T04:53:24;5.67;;;3.23;;
5937;SDS011;2994;51.220;4.412;2023-07-20T04:55:50;4.97;;;3.20;;
5937;SDS011;2994;51.220;4.412;2023-07-20T04:58:16;3.70;;;3.03;;
5937;SDS011;2994;51.220;4.412;2023-07-20T05:00:43;2.70;;;2.50;;
5937;SDS011;2994;51.220;4.412;2023-07-20T05:03:08;3.73;;;3.00;;
5937;SDS011;2994;51.220;4.412;2023-07-20T05:05:34;2.90;;;2.33;;
5937;SDS011;2994;51.220;4.412;2023-07-20T05:07:59;5.30;;;3.40;;
5937;SDS011;2994;51.220;4.412;2023-07-20T05:10:25;3.83;;;3.17;;
5937;SDS011;2994;51.220;4.412;2023-07-20T05:12:50;5.27;;;4.77;;
5937;SDS011;2994;51.220;4.412;2023-07-20T05:15:15;4.27;;;3.87;;
5937;SDS011;2994;51.220;4.412;2023-07-20T05:17:41;3.90;;;3.60;;
5937;SDS011;2994;51.220;4.412;2023-07-20T05:20:07;4.00;;;3.70;;
5937;SDS011;2994;51.220;4.412;2023-07-20T05:22:35;4.10;;;3.67;;
5937;SDS011;2994;51.220;4.412;2023-07-20T05:25:00;4.13;;;3.73;;
5937;SDS011;2994;51.220;4.412;2023-07-20T05:27:26;4.03;;;3.57;;
5937;SDS011;2994;51.220;4.412;2023-07-20T05:29:51;3.70;;;3.40;;
5937;SDS011;2994;51.220;4.412;2023-07-20T05:32:17;4.30;;;3.90;;
5937;SDS011;2994;51.220;4.412;2023-07-20T05:34:43;3.20;;;3.00;;
5937;SDS011;2994;51.220;4.412;2023-07-20T05:37:08;6.70;;;3.70;;
5937;SDS011;2994;51.220;4.412;2023-07-20T05:39:34;3.20;;;2.90;;
5937;SDS011;2994;51.220;4.412;2023-07-20T05:41:59;3.53;;;3.20;;
5937;SDS011;2994;51.220;4.412;2023-07-20T05:44:25;2.37;;;2.17;;
5937;SDS011;2994;51.220;4.412;2023-07-20T05:46:50;2.97;;;2.77;;
5937;SDS011;2994;51.220;4.412;2023-07-20T05:49:19;2.37;;;2.13;;
5937;SDS011;2994;51.220;4.412;2023-07-20T05:51:44;2.60;;;2.30;;
5937;SDS011;2994;51.220;4.412;2023-07-20T05:54:11;2.20;;;2.00;;
5937;SDS011;2994;51.220;4.412;2023-07-20T05:56:37;2.60;;;2.40;;
5937;SDS011;2994;51.220;4.412;2023-07-20T05:59:02;3.53;;;2.00;;
5937;SDS011;2994;51.220;4.412;2023-07-20T06:01:27;3.40;;;2.50;;
5937;SDS011;2994;51.220;4.412;2023-07-20T06:03:53;2.60;;;2.23;;
5937;SDS011;2994;51.220;4.412;2023-07-20T06:06:18;1.77;;;1.53;;
5937;SDS011;2994;51.220;4.412;2023-07-20T06:08:44;1.70;;;1.50;;
5937;SDS011;2994;51.220;4.412;2023-07-20T06:11:10;1.53;;;1.20;;
5937;SDS011;2994;51.220;4.412;2023-07-20T06:13:36;1.83;;;1.50;;
5937;SDS011;2994;51.220;4.412;2023-07-20T06:16:01;1.60;;;1.37;;
5937;SDS011;2994;51.220;4.412;2023-07-20T06:18:28;1.87;;;1.43;;
5937;SDS011;2994;51.220;4.412;2023-07-20T06:20:55;1.87;;;1.67;;
5937;SDS011;2994;51.220;4.412;2023-07-20T06:23:20;2.17;;;1.50;;
5937;SDS011;2994;51.220;4.412;2023-07-20T06:25:46;1.53;;;1.40;;
5937;SDS011;2994;51.220;4.412;2023-07-20T06:28:11;3.20;;;1.60;;
5937;SDS011;2994;51.220;4.412;2023-07-20T06:30:37;1.20;;;0.93;;
5937;SDS011;2994;51.220;4.412;2023-07-20T06:33:03;3.03;;;1.47;;
5937;SDS011;2994;51.220;4.412;2023-07-20T06:35:28;1.57;;;1.27;;
5937;SDS011;2994;51.220;4.412;2023-07-20T06:37:53;1.70;;;1.60;;
5937;SDS011;2994;51.220;4.412;2023-07-20T06:40:19;2.43;;;2.10;;
5937;SDS011;2994;51.220;4.412;2023-07-20T06:42:44;2.10;;;1.90;;
5937;SDS011;2994;51.220;4.412;2023-07-20T06:45:10;1.77;;;1.40;;
5937;SDS011;2994;51.220;4.412;2023-07-20T06:47:38;2.03;;;1.60;;
5937;SDS011;2994;51.220;4.412;2023-07-20T06:50:05;1.80;;;1.57;;
5937;SDS011;2994;51.220;4.412;2023-07-20T06:52:31;1.57;;;1.33;;
5937;SDS011;2994;51.220;4.412;2023-07-20T06:54:57;1.83;;;1.63;;
5937;SDS011;2994;51.220;4.412;2023-07-20T06:57:22;2.00;;;1.83;;
5937;SDS011;2994;51.220;4.412;2023-07-20T06:59:47;1.83;;;1.60;;
5937;SDS011;2994;51.220;4.412;2023-07-20T07:02:13;2.23;;;2.07;;
5937;SDS011;2994;51.220;4.412;2023-07-20T07:04:39;1.93;;;1.80;;
5937;SDS011;2994;51.220;4.412;2023-07-20T07:07:05;2.13;;;1.93;;
5937;SDS011;2994;51.220;4.412;2023-07-20T07:09:30;2.67;;;2.47;;
5937;SDS011;2994;51.220;4.412;2023-07-20T07:11:56;3.30;;;2.00;;
5937;SDS011;2994;51.220;4.412;2023-07-20T07:14:22;9.10;;;2.93;;
5937;SDS011;2994;51.220;4.412;2023-07-20T07:16:47;3.00;;;2.50;;
5937;SDS011;2994;51.220;4.412;2023-07-20T07:19:13;3.30;;;2.30;;
5937;SDS011;2994;51.220;4.412;2023-07-20T07:21:38;3.00;;;2.17;;
5937;SDS011;2994;51.220;4.412;2023-07-20T07:24:05;2.17;;;1.97;;
5937;SDS011;2994;51.220;4.412;2023-07-20T07:26:32;1.73;;;1.60;;
5937;SDS011;2994;51.220;4.412;2023-07-20T07:28:58;2.23;;;1.90;;
5937;SDS011;2994;51.220;4.412;2023-07-20T07:31:24;1.97;;;1.80;;
5937;SDS011;2994;51.220;4.412;2023-07-20T07:33:50;2.10;;;1.77;;
5937;SDS011;2994;51.220;4.412;2023-07-20T07:36:16;2.20;;;1.50;;
5937;SDS011;2994;51.220;4.412;2023-07-20T07:38:41;2.13;;;1.57;;
5937;SDS011;2994;51.220;4.412;2023-07-20T07:41:07;1.57;;;1.20;;
5937;SDS011;2994;51.220;4.412;2023-07-20T07:43:33;2.93;;;1.77;;
5937;SDS011;2994;51.220;4.412;2023-07-20T07:46:00;1.40;;;1.30;;
5937;SDS011;2994;51.220;4.412;2023-07-20T07:48:25;1.83;;;1.37;;
5937;SDS011;2994;51.220;4.412;2023-07-20T07:50:53;2.60;;;2.40;;
5937;SDS011;2994;51.220;4.412;2023-07-20T07:53:18;1.73;;;1.33;;
5937;SDS011;2994;51.220;4.412;2023-07-20T07:55:45;2.37;;;1.40;;
5937;SDS011;2994;51.220;4.412;2023-07-20T07:58:12;1.70;;;1.60;;
5937;SDS011;2994;51.220;4.412;2023-07-20T08:00:38;2.90;;;1.70;;
5937;SDS011;2994;51.220;4.412;2023-07-20T08:03:05;2.40;;;1.70;;
5937;SDS011;2994;51.220;4.412;2023-07-20T08:05:32;1.70;;;1.60;;
5937;SDS011;2994;51.220;4.412;2023-07-20T08:07:58;1.63;;;1.53;;
5937;SDS011;2994;51.220;4.412;2023-07-20T08:10:23;1.93;;;1.60;;
5937;SDS011;2994;51.220;4.412;2023-07-20T08:12:48;3.50;;;1.80;;
5937;SDS011;2994;51.220;4.412;2023-07-20T08:15:14;1.67;;;1.50;;
5937;SDS011;2994;51.220;4.412;2023-07-20T08:17:40;2.20;;;2.00;;
5937;SDS011;2994;51.220;4.412;2023-07-20T08:20:07;2.50;;;2.30;;
5937;SDS011;2994;51.220;4.412;2023-07-20T08:22:36;2.20;;;2.00;;
5937;SDS011;2994;51.220;4.412;2023-07-20T08:25:01;2.20;;;2.00;;
5937;SDS011;2994;51.220;4.412;2023-07-20T09:34:08;4.43;;;4.03;;
5937;SDS011;2994;51.220;4.412;2023-07-20T09:36:36;3.87;;;3.60;;
5937;SDS011;2994;51.220;4.412;2023-07-20T09:39:03;3.50;;;3.30;;
5937;SDS011;2994;51.220;4.412;2023-07-20T09:41:29;2.93;;;2.73;;
5937;SDS011;2994;51.220;4.412;2023-07-20T09:43:55;3.40;;;3.17;;
5937;SDS011;2994;51.220;4.412;2023-07-20T09:46:21;3.23;;;2.93;;
5937;SDS011;2994;51.220;4.412;2023-07-20T09:48:56;2.90;;;2.70;;
5937;SDS011;2994;51.220;4.412;2023-07-20T09:51:22;2.60;;;2.40;;
5937;SDS011;2994;51.220;4.412;2023-07-20T09:53:48;4.07;;;2.60;;
5937;SDS011;2994;51.220;4.412;2023-07-20T09:56:17;2.07;;;1.93;;
5937;SDS011;2994;51.220;4.412;2023-07-20T09:58:48;2.70;;;2.50;;
5937;SDS011;2994;51.220;4.412;2023-07-20T10:01:13;2.60;;;2.40;;
5937;SDS011;2994;51.220;4.412;2023-07-20T10:03:46;2.60;;;2.40;;
5937;SDS011;2994;51.220;4.412;2023-07-20T10:06:15;2.70;;;2.50;;
5937;SDS011;2994;51.220;4.412;2023-07-20T10:08:47;2.40;;;2.20;;
5937;SDS011;2994;51.220;4.412;2023-07-20T10:11:14;2.47;;;1.93;;
5937;SDS011;2994;51.220;4.412;2023-07-20T10:13:40;3.13;;;2.83;;
5937;SDS011;2994;51.220;4.412;2023-07-20T10:16:12;2.43;;;2.23;;
5937;SDS011;2994;51.220;4.412;2023-07-20T10:18:51;3.40;;;3.10;;
5937;SDS011;2994;51.220;4.412;2023-07-20T10:21:26;4.20;;;3.90;;
5937;SDS011;2994;51.220;4.412;2023-07-20T10:23:55;4.03;;;3.73;;
5937;SDS011;2994;51.220;4.412;2023-07-20T10:26:22;3.57;;;3.37;;
5937;SDS011;2994;51.220;4.412;2023-07-20T10:28:47;2.63;;;1.90;;
5937;SDS011;2994;51.220;4.412;2023-07-20T10:31:13;2.10;;;1.80;;
5937;SDS011;2994;51.220;4.412;2023-07-20T10:33:40;2.07;;;1.70;;
5937;SDS011;2994;51.220;4.412;2023-07-20T10:36:06;1.50;;;1.40;;
5937;SDS011;2994;51.220;4.412;2023-07-20T10:38:39;1.37;;;1.27;;
5937;SDS011;2994;51.220;4.412;2023-07-20T10:41:15;1.73;;;1.47;;
5937;SDS011;2994;51.220;4.412;2023-07-20T10:43:45;1.10;;;0.90;;
5937;SDS011;2994;51.220;4.412;2023-07-20T10:46:11;1.33;;;1.10;;
5937;SDS011;2994;51.220;4.412;2023-07-20T10:48:58;2.53;;;1.90;;
5937;SDS011;2994;51.220;4.412;2023-07-20T10:51:27;2.40;;;1.70;;
5937;SDS011;2994;51.220;4.412;2023-07-20T10:53:54;3.87;;;2.30;;
5937;SDS011;2994;51.220;4.412;2023-07-20T10:59:02;1.87;;;1.20;;
5937;SDS011;2994;51.220;4.412;2023-07-20T11:01:46;1.67;;;1.00;;
5937;SDS011;2994;51.220;4.412;2023-07-20T11:04:14;1.00;;;0.90;;
5937;SDS011;2994;51.220;4.412;2023-07-20T11:06:48;1.50;;;1.10;;
5937;SDS011;2994;51.220;4.412;2023-07-20T11:12:08;1.13;;;1.03;;
5937;SDS011;2994;51.220;4.412;2023-07-20T11:14:55;1.47;;;1.00;;
5937;SDS011;2994;51.220;4.412;2023-07-20T11:17:28;2.80;;;2.03;;
5937;SDS011;2994;51.220;4.412;2023-07-20T11:20:00;1.47;;;1.33;;
5937;SDS011;2994;51.220;4.412;2023-07-20T11:22:33;1.10;;;1.00;;
5937;SDS011;2994;51.220;4.412;2023-07-20T11:24:59;1.97;;;1.23;;
5937;SDS011;2994;51.220;4.412;2023-07-20T11:27:27;1.57;;;1.00;;
5937;SDS011;2994;51.220;4.412;2023-07-20T11:29:53;1.20;;;1.00;;
5937;SDS011;2994;51.220;4.412;2023-07-20T11:32:22;1.73;;;1.13;;
5937;SDS011;2994;51.220;4.412;2023-07-20T11:35:06;1.20;;;1.00;;
5937;SDS011;2994;51.220;4.412;2023-07-20T11:37:37;3.70;;;2.20;;
5937;SDS011;2994;51.220;4.412;2023-07-20T11:40:08;1.77;;;1.20;;
5937;SDS011;2994;51.220;4.412;2023-07-20T11:42:39;2.90;;;1.40;;
5937;SDS011;2994;51.220;4.412;2023-07-20T11:45:21;2.83;;;1.30;;
5937;SDS011;2994;51.220;4.412;2023-07-20T11:47:52;1.17;;;1.07;;
5937;SDS011;2994;51.220;4.412;2023-07-20T11:50:20;1.20;;;1.00;;
5937;SDS011;2994;51.220;4.412;2023-07-20T11:52:53;2.80;;;2.00;;
5937;SDS011;2994;51.220;4.412;2023-07-20T11:55:19;1.17;;;1.07;;
5937;SDS011;2994;51.220;4.412;2023-07-20T11:58:04;1.43;;;1.33;;
5937;SDS011;2994;51.220;4.412;2023-07-20T12:00:30;2.20;;;2.00;;
5937;SDS011;2994;51.220;4.412;2023-07-20T12:02:56;1.17;;;1.07;;
5937;SDS011;2994;51.220;4.412;2023-07-20T12:05:22;1.50;;;1.10;;
5937;SDS011;2994;51.220;4.412;2023-07-20T12:07:48;1.33;;;1.23;;
5937;SDS011;2994;51.220;4.412;2023-07-20T12:10:15;5.03;;;3.40;;
5937;SDS011;2994;51.220;4.412;2023-07-20T12:12:41;1.30;;;1.13;;
5937;SDS011;2994;51.220;4.412;2023-07-20T12:15:14;1.30;;;1.03;;
5937;SDS011;2994;51.220;4.412;2023-07-20T12:17:46;1.13;;;1.03;;
5937;SDS011;2994;51.220;4.412;2023-07-20T12:20:32;1.97;;;1.77;;
5937;SDS011;2994;51.220;4.412;2023-07-20T12:23:00;1.63;;;1.30;;
5937;SDS011;2994;51.220;4.412;2023-07-20T12:28:04;1.30;;;1.00;;
5937;SDS011;2994;51.220;4.412;2023-07-20T12:30:31;1.50;;;1.40;;
5937;SDS011;2994;51.220;4.412;2023-07-20T12:32:58;1.47;;;1.37;;
5937;SDS011;2994;51.220;4.412;2023-07-20T12:35:23;2.07;;;1.67;;
5937;SDS011;2994;51.220;4.412;2023-07-20T12:37:49;1.93;;;1.60;;
5937;SDS011;2994;51.220;4.412;2023-07-20T12:40:16;1.57;;;1.30;;
5937;SDS011;2994;51.220;4.412;2023-07-20T12:42:42;2.10;;;1.90;;
5937;SDS011;2994;51.220;4.412;2023-07-20T12:45:08;2.17;;;2.07;;
5937;SDS011;2994;51.220;4.412;2023-07-20T12:47:33;2.57;;;2.00;;
5937;SDS011;2994;51.220;4.412;2023-07-20T12:49:59;2.40;;;2.20;;
5937;SDS011;2994;51.220;4.412;2023-07-20T12:52:25;3.00;;;2.77;;
5937;SDS011;2994;51.220;4.412;2023-07-20T12:54:50;2.80;;;1.83;;
5937;SDS011;2994;51.220;4.412;2023-07-20T12:57:16;2.50;;;2.30;;
5937;SDS011;2994;51.220;4.412;2023-07-20T12:59:41;2.63;;;2.33;;
5937;SDS011;2994;51.220;4.412;2023-07-20T13:02:07;2.77;;;2.57;;
5937;SDS011;2994;51.220;4.412;2023-07-20T13:04:32;4.07;;;2.30;;
5937;SDS011;2994;51.220;4.412;2023-07-20T13:06:58;3.03;;;2.77;;
5937;SDS011;2994;51.220;4.412;2023-07-20T13:09:24;2.60;;;2.40;;
5937;SDS011;2994;51.220;4.412;2023-07-20T13:11:50;3.83;;;3.37;;
5937;SDS011;2994;51.220;4.412;2023-07-20T13:14:16;2.63;;;2.43;;
5937;SDS011;2994;51.220;4.412;2023-07-20T13:16:42;3.30;;;3.10;;
5937;SDS011;2994;51.220;4.412;2023-07-20T13:19:07;4.40;;;4.10;;
5937;SDS011;2994;51.220;4.412;2023-07-20T13:21:33;3.87;;;3.57;;
5937;SDS011;2994;51.220;4.412;2023-07-20T13:23:58;4.40;;;4.10;;
5937;SDS011;2994;51.220;4.412;2023-07-20T13:26:23;6.00;;;5.60;;
5937;SDS011;2994;51.220;4.412;2023-07-20T13:28:49;5.03;;;4.73;;
5937;SDS011;2994;51.220;4.412;2023-07-20T13:31:15;5.23;;;4.90;;
5937;SDS011;2994;51.220;4.412;2023-07-20T13:33:42;5.83;;;5.23;;
5937;SDS011;2994;51.220;4.412;2023-07-20T13:36:08;6.60;;;6.00;;
5937;SDS011;2994;51.220;4.412;2023-07-20T13:38:34;6.50;;;6.00;;
5937;SDS011;2994;51.220;4.412;2023-07-20T13:40:59;5.30;;;5.00;;
5937;SDS011;2994;51.220;4.412;2023-07-20T13:43:25;5.57;;;5.17;;
5937;SDS011;2994;51.220;4.412;2023-07-20T13:45:50;6.13;;;5.73;;
5937;SDS011;2994;51.220;4.412;2023-07-20T13:48:15;6.73;;;6.10;;
5937;SDS011;2994;51.220;4.412;2023-07-20T13:50:44;7.00;;;6.57;;
5937;SDS011;2994;51.220;4.412;2023-07-20T13:53:11;7.60;;;7.10;;
5937;SDS011;2994;51.220;4.412;2023-07-20T13:55:36;7.33;;;6.83;;
5937;SDS011;2994;51.220;4.412;2023-07-20T13:58:03;7.90;;;7.20;;
5937;SDS011;2994;51.220;4.412;2023-07-20T14:00:28;6.90;;;6.40;;
5937;SDS011;2994;51.220;4.412;2023-07-20T14:02:57;7.57;;;7.03;;
5937;SDS011;2994;51.220;4.412;2023-07-20T14:05:23;7.13;;;6.63;;
5937;SDS011;2994;51.220;4.412;2023-07-20T14:07:49;7.60;;;7.10;;
5937;SDS011;2994;51.220;4.412;2023-07-20T14:10:15;7.77;;;7.10;;
5937;SDS011;2994;51.220;4.412;2023-07-20T14:12:40;7.20;;;6.70;;
5937;SDS011;2994;51.220;4.412;2023-07-20T14:15:06;6.70;;;6.30;;
5937;SDS011;2994;51.220;4.412;2023-07-20T14:17:31;6.63;;;6.23;;
5937;SDS011;2994;51.220;4.412;2023-07-20T14:20:00;6.03;;;5.63;;
5937;SDS011;2994;51.220;4.412;2023-07-20T14:22:25;6.07;;;5.67;;
5937;SDS011;2994;51.220;4.412;2023-07-20T14:24:51;5.60;;;5.30;;
5937;SDS011;2994;51.220;4.412;2023-07-20T14:27:16;6.30;;;5.90;;
5937;SDS011;2994;51.220;4.412;2023-07-20T14:29:42;6.00;;;5.50;;
5937;SDS011;2994;51.220;4.412;2023-07-20T14:32:07;4.93;;;4.63;;
5937;SDS011;2994;51.220;4.412;2023-07-20T14:34:33;5.30;;;4.97;;
5937;SDS011;2994;51.220;4.412;2023-07-20T14:37:01;5.27;;;4.97;;
5937;SDS011;2994;51.220;4.412;2023-07-20T14:39:27;5.17;;;4.83;;
5937;SDS011;2994;51.220;4.412;2023-07-20T14:41:52;4.50;;;4.23;;
5937;SDS011;2994;51.220;4.412;2023-07-20T14:44:18;5.10;;;4.80;;
5937;SDS011;2994;51.220;4.412;2023-07-20T14:46:45;5.07;;;4.77;;
5937;SDS011;2994;51.220;4.412;2023-07-20T14:49:11;5.77;;;5.47;;
5937;SDS011;2994;51.220;4.412;2023-07-20T14:51:36;6.20;;;5.80;;
5937;SDS011;2994;51.220;4.412;2023-07-20T14:54:08;6.30;;;5.90;;
5937;SDS011;2994;51.220;4.412;2023-07-20T14:56:34;6.30;;;5.90;;
5937;SDS011;2994;51.220;4.412;2023-07-20T14:58:59;5.93;;;5.63;;
5937;SDS011;2994;51.220;4.412;2023-07-20T15:01:25;5.47;;;5.17;;
5937;SDS011;2994;51.220;4.412;2023-07-20T15:03:51;3.90;;;3.60;;
5937;SDS011;2994;51.220;4.412;2023-07-20T15:06:18;1.90;;;1.80;;
5937;SDS011;2994;51.220;4.412;2023-07-20T15:08:44;2.50;;;1.80;;
5937;SDS011;2994;51.220;4.412;2023-07-20T15:11:09;5.00;;;3.23;;
5937;SDS011;2994;51.220;4.412;2023-07-20T15:13:35;2.57;;;2.10;;
5937;SDS011;2994;51.220;4.412;2023-07-20T15:16:00;1.63;;;1.53;;
5937;SDS011;2994;51.220;4.412;2023-07-20T15:18:26;2.57;;;2.37;;
5937;SDS011;2994;51.220;4.412;2023-07-20T15:20:51;2.53;;;2.33;;
5937;SDS011;2994;51.220;4.412;2023-07-20T15:23:18;2.37;;;2.07;;
5937;SDS011;2994;51.220;4.412;2023-07-20T15:25:44;1.70;;;1.57;;
5937;SDS011;2994;51.220;4.412;2023-07-20T15:28:10;2.13;;;1.93;;
5937;SDS011;2994;51.220;4.412;2023-07-20T15:30:35;2.67;;;2.03;;
5937;SDS011;2994;51.220;4.412;2023-07-20T15:33:01;3.27;;;2.27;;
5937;SDS011;2994;51.220;4.412;2023-07-20T15:35:26;2.20;;;1.87;;
5937;SDS011;2994;51.220;4.412;2023-07-20T15:37:52;2.40;;;1.90;;
5937;SDS011;2994;51.220;4.412;2023-07-20T15:40:17;2.27;;;1.90;;
5937;SDS011;2994;51.220;4.412;2023-07-20T15:42:43;4.10;;;2.67;;
5937;SDS011;2994;51.220;4.412;2023-07-20T15:45:09;2.60;;;2.40;;
5937;SDS011;2994;51.220;4.412;2023-07-20T15:47:34;3.83;;;2.30;;
5937;SDS011;2994;51.220;4.412;2023-07-20T15:50:00;3.17;;;2.07;;
5937;SDS011;2994;51.220;4.412;2023-07-20T15:52:27;2.80;;;2.60;;
5937;SDS011;2994;51.220;4.412;2023-07-20T15:54:52;3.70;;;2.90;;
5937;SDS011;2994;51.220;4.412;2023-07-20T15:57:18;4.10;;;3.80;;
5937;SDS011;2994;51.220;4.412;2023-07-20T15:59:43;3.57;;;3.07;;
5937;SDS011;2994;51.220;4.412;2023-07-20T16:02:09;3.07;;;2.87;;
5937;SDS011;2994;51.220;4.412;2023-07-20T16:04:34;3.77;;;3.23;;
5937;SDS011;2994;51.220;4.412;2023-07-20T16:07:00;5.03;;;3.70;;
5937;SDS011;2994;51.220;4.412;2023-07-20T16:09:25;4.03;;;3.20;;
5937;SDS011;2994;51.220;4.412;2023-07-20T16:11:51;3.37;;;2.90;;
5937;SDS011;2994;51.220;4.412;2023-07-20T16:14:17;3.60;;;3.30;;
5937;SDS011;2994;51.220;4.412;2023-07-20T16:16:42;5.20;;;3.80;;
5937;SDS011;2994;51.220;4.412;2023-07-20T16:19:08;2.80;;;2.60;;
5937;SDS011;2994;51.220;4.412;2023-07-20T16:21:33;4.63;;;2.90;;
5937;SDS011;2994;51.220;4.412;2023-07-20T16:23:59;4.50;;;2.80;;
5937;SDS011;2994;51.220;4.412;2023-07-20T16:26:25;3.40;;;3.10;;
5937;SDS011;2994;51.220;4.412;2023-07-20T16:28:50;2.77;;;2.53;;
5937;SDS011;2994;51.220;4.412;2023-07-20T16:31:16;3.47;;;3.17;;
5937;SDS011;2994;51.220;4.412;2023-07-20T16:33:42;3.10;;;2.80;;
5937;SDS011;2994;51.220;4.412;2023-07-20T16:36:12;3.20;;;2.67;;
5937;SDS011;2994;51.220;4.412;2023-07-20T16:38:39;3.23;;;2.90;;